sensor_id;sensor_type;location;lat;lon;timestamp;pressure;altitude;pressure_sealevel;temperature;humidity
58769;BME280;44536;47.474;19.056;2023-01-27T00:00:13;100578.91;;;1.23;81.21
58769;BME280;44536;47.474;19.056;2023-01-27T00:03:16;100573.69;;;1.23;80.96
58769;BME280;44536;47.474;19.056;2023-01-27T00:06:19;100570.31;;;1.19;81.63
58769;BME280;44536;47.474;19.056;2023-01-27T00:09:22;100567.81;;;1.16;83.19
58769;BME280;44536;47.474;19.056;2023-01-27T00:12:25;100565.50;;;1.07;82.78
58769;BME280;44536;47.474;19.056;2023-01-27T00:15:46;100568.41;;;0.99;83.67
58769;BME280;44536;47.474;19.056;2023-01-27T00:18:49;100566.16;;;1.14;82.80
58769;BME280;44536;47.474;19.056;2023-01-27T00:21:51;100567.41;;;1.04;83.61
58769;BME280;44536;47.474;19.056;2023-01-27T00:25:12;100569.47;;;1.19;82.65
58769;BME280;44536;47.474;19.056;2023-01-27T00:28:17;100560.09;;;1.13;83.16
58769;BME280;44536;47.474;19.056;2023-01-27T00:31:23;100562.53;;;1.18;84.47
58769;BME280;44536;47.474;19.056;2023-01-27T00:34:45;100553.06;;;1.15;83.29
58769;BME280;44536;47.474;19.056;2023-01-27T00:37:47;100553.06;;;1.15;83.25
58769;BME280;44536;47.474;19.056;2023-01-27T00:40:49;100557.88;;;1.03;83.90
58769;BME280;44536;47.474;19.056;2023-01-27T00:44:12;100557.22;;;0.96;82.90
58769;BME280;44536;47.474;19.056;2023-01-27T00:47:15;100561.34;;;1.03;82.60
58769;BME280;44536;47.474;19.056;2023-01-27T00:50:18;100563.72;;;1.09;82.72
58769;BME280;44536;47.474;19.056;2023-01-27T00:53:21;100560.19;;;1.10;81.04
58769;BME280;44536;47.474;19.056;2023-01-27T00:56:25;100557.69;;;1.07;81.78
58769;BME280;44536;47.474;19.056;2023-01-27T00:59:29;100554.72;;;1.18;81.00
58769;BME280;44536;47.474;19.056;2023-01-27T01:02:32;100568.87;;;1.11;81.48
58769;BME280;44536;47.474;19.056;2023-01-27T01:05:35;100549.34;;;0.97;81.76
58769;BME280;44536;47.474;19.056;2023-01-27T01:08:37;100555.47;;;0.96;80.48
58769;BME280;44536;47.474;19.056;2023-01-27T01:11:40;100551.41;;;0.88;80.89
58769;BME280;44536;47.474;19.056;2023-01-27T01:14:42;100555.50;;;0.95;80.85
58769;BME280;44536;47.474;19.056;2023-01-27T01:17:47;100554.00;;;0.88;80.82
58769;BME280;44536;47.474;19.056;2023-01-27T01:20:49;100553.75;;;0.95;79.63
58769;BME280;44536;47.474;19.056;2023-01-27T01:23:52;100556.22;;;1.00;79.91
58769;BME280;44536;47.474;19.056;2023-01-27T01:26:55;100550.28;;;0.95;80.53
58769;BME280;44536;47.474;19.056;2023-01-27T01:29:58;100552.50;;;0.81;82.00
58769;BME280;44536;47.474;19.056;2023-01-27T01:33:02;100549.94;;;0.79;82.53
58769;BME280;44536;47.474;19.056;2023-01-27T01:36:07;100544.06;;;0.99;80.78
58769;BME280;44536;47.474;19.056;2023-01-27T01:39:10;100542.50;;;0.93;81.67
58769;BME280;44536;47.474;19.056;2023-01-27T01:42:12;100548.63;;;0.92;83.03
58769;BME280;44536;47.474;19.056;2023-01-27T01:45:44;100550.59;;;0.86;84.73
58769;BME280;44536;47.474;19.056;2023-01-27T01:48:54;100542.41;;;0.96;83.87
58769;BME280;44536;47.474;19.056;2023-01-27T01:51:59;100544.47;;;0.87;85.10
58769;BME280;44536;47.474;19.056;2023-01-27T01:55:03;100538.66;;;0.79;85.68
58769;BME280;44536;47.474;19.056;2023-01-27T01:58:06;100550.19;;;0.72;86.11
58769;BME280;44536;47.474;19.056;2023-01-27T02:01:10;100545.91;;;0.69;85.88
58769;BME280;44536;47.474;19.056;2023-01-27T02:04:18;100538.00;;;0.72;85.72
58769;BME280;44536;47.474;19.056;2023-01-27T02:10:29;100531.72;;;0.78;86.51
58769;BME280;44536;47.474;19.056;2023-01-27T02:13:33;100527.25;;;0.81;86.15
58769;BME280;44536;47.474;19.056;2023-01-27T02:16:36;100529.16;;;0.76;85.93
58769;BME280;44536;47.474;19.056;2023-01-27T02:19:43;100522.22;;;0.75;86.42
58769;BME280;44536;47.474;19.056;2023-01-27T02:26:34;100526.84;;;0.67;84.82
58769;BME280;44536;47.474;19.056;2023-01-27T02:29:39;100520.22;;;0.57;84.80
58769;BME280;44536;47.474;19.056;2023-01-27T02:32:41;100508.94;;;0.56;84.09
58769;BME280;44536;47.474;19.056;2023-01-27T02:39:00;100506.41;;;0.53;84.17
58769;BME280;44536;47.474;19.056;2023-01-27T02:42:03;100489.00;;;0.54;82.35
58769;BME280;44536;47.474;19.056;2023-01-27T02:45:07;100491.28;;;0.38;82.43
58769;BME280;44536;47.474;19.056;2023-01-27T02:48:09;100495.00;;;0.31;83.11
58769;BME280;44536;47.474;19.056;2023-01-27T02:51:12;100489.88;;;0.28;82.59
58769;BME280;44536;47.474;19.056;2023-01-27T02:54:15;100479.22;;;0.08;83.88
58769;BME280;44536;47.474;19.056;2023-01-27T02:57:17;100480.63;;;0.18;83.04
58769;BME280;44536;47.474;19.056;2023-01-27T03:00:21;100476.12;;;0.23;81.36
58769;BME280;44536;47.474;19.056;2023-01-27T03:03:23;100466.94;;;0.11;82.95
58769;BME280;44536;47.474;19.056;2023-01-27T03:06:27;100476.06;;;-0.02;83.50
58769;BME280;44536;47.474;19.056;2023-01-27T03:09:29;100470.22;;;-0.10;84.27
58769;BME280;44536;47.474;19.056;2023-01-27T03:12:34;100471.22;;;-0.14;84.40
58769;BME280;44536;47.474;19.056;2023-01-27T03:15:37;100469.81;;;0.02;82.87
58769;BME280;44536;47.474;19.056;2023-01-27T03:18:57;100461.28;;;-0.02;82.11
58769;BME280;44536;47.474;19.056;2023-01-27T03:22:00;100466.22;;;-0.22;84.33
58769;BME280;44536;47.474;19.056;2023-01-27T03:25:05;100460.72;;;-0.41;85.22
58769;BME280;44536;47.474;19.056;2023-01-27T03:28:07;100453.94;;;-0.46;86.31
58769;BME280;44536;47.474;19.056;2023-01-27T03:31:11;100458.91;;;-0.39;84.23
58769;BME280;44536;47.474;19.056;2023-01-27T03:34:23;100446.50;;;-0.30;84.18
58769;BME280;44536;47.474;19.056;2023-01-27T03:37:30;100446.06;;;-0.15;82.95
58769;BME280;44536;47.474;19.056;2023-01-27T03:40:51;100443.22;;;-0.08;82.82
58769;BME280;44536;47.474;19.056;2023-01-27T03:44:12;100441.47;;;-0.07;82.51
58769;BME280;44536;47.474;19.056;2023-01-27T03:47:33;100439.66;;;-0.05;82.36
58769;BME280;44536;47.474;19.056;2023-01-27T03:50:35;100434.53;;;-0.08;81.44
58769;BME280;44536;47.474;19.056;2023-01-27T03:53:44;100436.75;;;0.04;81.42
58769;BME280;44536;47.474;19.056;2023-01-27T03:56:47;100433.09;;;0.10;81.47
58769;BME280;44536;47.474;19.056;2023-01-27T03:59:49;100432.12;;;0.12;80.78
58769;BME280;44536;47.474;19.056;2023-01-27T04:02:51;100428.72;;;0.10;80.48
58769;BME280;44536;47.474;19.056;2023-01-27T04:06:16;100428.47;;;0.18;80.59
58769;BME280;44536;47.474;19.056;2023-01-27T04:09:38;100421.69;;;0.12;81.40
58769;BME280;44536;47.474;19.056;2023-01-27T04:12:40;100419.94;;;0.13;80.92
58769;BME280;44536;47.474;19.056;2023-01-27T04:15:42;100425.22;;;0.11;80.63
58769;BME280;44536;47.474;19.056;2023-01-27T04:18:45;100418.84;;;-0.07;81.38
58769;BME280;44536;47.474;19.056;2023-01-27T04:21:50;100420.84;;;-0.15;81.60
58769;BME280;44536;47.474;19.056;2023-01-27T04:24:53;100421.03;;;-0.21;82.82
58769;BME280;44536;47.474;19.056;2023-01-27T04:27:55;100418.91;;;-0.08;81.46
58769;BME280;44536;47.474;19.056;2023-01-27T04:30:57;100423.16;;;-0.06;80.65
58769;BME280;44536;47.474;19.056;2023-01-27T04:34:00;100417.47;;;-0.18;81.73
58769;BME280;44536;47.474;19.056;2023-01-27T04:37:04;100428.22;;;-0.29;82.54
58769;BME280;44536;47.474;19.056;2023-01-27T04:40:07;100423.59;;;-0.19;82.07
58769;BME280;44536;47.474;19.056;2023-01-27T04:43:10;100431.88;;;-0.35;83.71
58769;BME280;44536;47.474;19.056;2023-01-27T04:46:12;100430.06;;;-0.32;82.18
58769;BME280;44536;47.474;19.056;2023-01-27T04:49:15;100433.94;;;-0.46;83.54
58769;BME280;44536;47.474;19.056;2023-01-27T04:52:17;100435.78;;;-0.49;83.00
58769;BME280;44536;47.474;19.056;2023-01-27T04:55:23;100449.69;;;-0.50;83.60
58769;BME280;44536;47.474;19.056;2023-01-27T04:58:25;100437.50;;;-0.48;83.46
58769;BME280;44536;47.474;19.056;2023-01-27T05:01:28;100442.94;;;-0.56;83.23
58769;BME280;44536;47.474;19.056;2023-01-27T05:04:30;100442.38;;;-0.38;82.29
58769;BME280;44536;47.474;19.056;2023-01-27T05:07:33;100448.50;;;-0.39;82.09
58769;BME280;44536;47.474;19.056;2023-01-27T05:10:36;100448.56;;;-0.12;80.53
58769;BME280;44536;47.474;19.056;2023-01-27T05:13:38;100441.78;;;-0.18;80.44
58769;BME280;44536;47.474;19.056;2023-01-27T05:16:44;100445.16;;;-0.44;82.06
58769;BME280;44536;47.474;19.056;2023-01-27T05:19:47;100445.84;;;-0.37;81.61
58769;BME280;44536;47.474;19.056;2023-01-27T05:22:49;100436.50;;;-0.44;81.97
58769;BME280;44536;47.474;19.056;2023-01-27T05:25:52;100425.41;;;-0.51;82.56
58769;BME280;44536;47.474;19.056;2023-01-27T05:28:58;100435.09;;;-0.54;82.76
58769;BME280;44536;47.474;19.056;2023-01-27T05:32:00;100437.84;;;-0.59;83.40
58769;BME280;44536;47.474;19.056;2023-01-27T05:35:03;100442.78;;;-0.51;83.22
58769;BME280;44536;47.474;19.056;2023-01-27T05:38:05;100439.66;;;-0.62;83.83
58769;BME280;44536;47.474;19.056;2023-01-27T05:41:09;100438.28;;;-0.74;83.96
58769;BME280;44536;47.474;19.056;2023-01-27T05:44:12;100445.81;;;-0.65;83.92
58769;BME280;44536;47.474;19.056;2023-01-27T05:47:15;100448.16;;;-0.56;83.21
58769;BME280;44536;47.474;19.056;2023-01-27T05:50:17;100444.97;;;-0.65;83.84
58769;BME280;44536;47.474;19.056;2023-01-27T05:53:20;100442.62;;;-0.75;84.00
58769;BME280;44536;47.474;19.056;2023-01-27T05:56:24;100434.75;;;-0.73;84.39
58769;BME280;44536;47.474;19.056;2023-01-27T05:59:29;100440.78;;;-0.71;83.85
58769;BME280;44536;47.474;19.056;2023-01-27T06:02:32;100440.53;;;-0.62;83.85
58769;BME280;44536;47.474;19.056;2023-01-27T06:05:35;100445.66;;;-0.59;83.73
58769;BME280;44536;47.474;19.056;2023-01-27T06:08:38;100433.28;;;-0.52;82.64
58769;BME280;44536;47.474;19.056;2023-01-27T06:11:41;100439.81;;;-0.39;81.40
58769;BME280;44536;47.474;19.056;2023-01-27T06:14:43;100435.91;;;-0.24;80.45
58769;BME280;44536;47.474;19.056;2023-01-27T06:17:46;100432.44;;;-0.25;79.85
58769;BME280;44536;47.474;19.056;2023-01-27T06:20:49;100424.69;;;-0.26;79.02
58769;BME280;44536;47.474;19.056;2023-01-27T06:23:52;100423.63;;;-0.21;79.08
58769;BME280;44536;47.474;19.056;2023-01-27T06:26:54;100419.03;;;-0.13;78.17
58769;BME280;44536;47.474;19.056;2023-01-27T06:29:57;100427.63;;;-0.09;78.58
58769;BME280;44536;47.474;19.056;2023-01-27T06:32:59;100425.56;;;0.00;76.48
58769;BME280;44536;47.474;19.056;2023-01-27T06:36:04;100429.72;;;0.06;75.15
58769;BME280;44536;47.474;19.056;2023-01-27T06:39:11;100432.12;;;0.12;74.33
58769;BME280;44536;47.474;19.056;2023-01-27T06:42:14;100436.84;;;0.27;72.99
58769;BME280;44536;47.474;19.056;2023-01-27T06:45:16;100437.72;;;0.28;73.35
58769;BME280;44536;47.474;19.056;2023-01-27T06:48:19;100440.13;;;0.34;72.23
58769;BME280;44536;47.474;19.056;2023-01-27T06:51:21;100441.88;;;0.33;72.27
58769;BME280;44536;47.474;19.056;2023-01-27T06:54:24;100441.78;;;0.37;72.08
58769;BME280;44536;47.474;19.056;2023-01-27T06:57:26;100445.47;;;0.56;70.23
58769;BME280;44536;47.474;19.056;2023-01-27T07:00:29;100439.12;;;0.63;69.16
58769;BME280;44536;47.474;19.056;2023-01-27T07:03:31;100443.50;;;0.62;68.43
58769;BME280;44536;47.474;19.056;2023-01-27T07:06:34;100437.75;;;0.78;69.09
58769;BME280;44536;47.474;19.056;2023-01-27T07:09:36;100435.16;;;0.78;69.90
58769;BME280;44536;47.474;19.056;2023-01-27T07:13:03;100436.53;;;0.88;68.88
58769;BME280;44536;47.474;19.056;2023-01-27T07:16:06;100442.91;;;1.04;67.12
58769;BME280;44536;47.474;19.056;2023-01-27T07:19:08;100438.03;;;1.18;65.40
58769;BME280;44536;47.474;19.056;2023-01-27T07:22:11;100444.00;;;1.22;66.39
58769;BME280;44536;47.474;19.056;2023-01-27T07:25:13;100442.12;;;1.25;65.19
58769;BME280;44536;47.474;19.056;2023-01-27T07:28:16;100446.97;;;1.36;64.13
58769;BME280;44536;47.474;19.056;2023-01-27T07:31:18;100444.47;;;1.33;64.00
58769;BME280;44536;47.474;19.056;2023-01-27T07:34:21;100455.38;;;1.44;63.70
58769;BME280;44536;47.474;19.056;2023-01-27T07:37:23;100453.44;;;1.49;64.13
58769;BME280;44536;47.474;19.056;2023-01-27T07:40:26;100456.78;;;1.53;63.60
58769;BME280;44536;47.474;19.056;2023-01-27T07:43:28;100446.00;;;1.39;63.65
58769;BME280;44536;47.474;19.056;2023-01-27T07:46:31;100447.19;;;1.53;64.50
58769;BME280;44536;47.474;19.056;2023-01-27T07:49:33;100438.44;;;1.54;63.86
58769;BME280;44536;47.474;19.056;2023-01-27T07:52:36;100431.47;;;1.55;63.43
58769;BME280;44536;47.474;19.056;2023-01-27T07:55:38;100429.59;;;1.35;64.40
58769;BME280;44536;47.474;19.056;2023-01-27T07:58:41;100431.00;;;1.44;65.65
58769;BME280;44536;47.474;19.056;2023-01-27T08:01:45;100439.47;;;1.50;66.16
58769;BME280;44536;47.474;19.056;2023-01-27T08:04:49;100440.00;;;1.58;65.31
58769;BME280;44536;47.474;19.056;2023-01-27T08:07:59;100449.59;;;1.81;63.47
58769;BME280;44536;47.474;19.056;2023-01-27T08:11:07;100454.75;;;1.83;62.64
58769;BME280;44536;47.474;19.056;2023-01-27T08:14:09;100446.53;;;1.70;62.70
58769;BME280;44536;47.474;19.056;2023-01-27T08:17:12;100453.97;;;1.57;64.37
58769;BME280;44536;47.474;19.056;2023-01-27T08:20:14;100447.06;;;1.56;63.21
58769;BME280;44536;47.474;19.056;2023-01-27T08:23:18;100453.34;;;1.52;64.52
58769;BME280;44536;47.474;19.056;2023-01-27T08:26:20;100449.88;;;1.52;62.98
58769;BME280;44536;47.474;19.056;2023-01-27T08:29:23;100449.88;;;1.52;63.15
58769;BME280;44536;47.474;19.056;2023-01-27T08:32:25;100451.47;;;1.56;62.54
58769;BME280;44536;47.474;19.056;2023-01-27T08:35:28;100450.25;;;1.41;63.30
58769;BME280;44536;47.474;19.056;2023-01-27T08:38:30;100460.25;;;1.53;63.05
58769;BME280;44536;47.474;19.056;2023-01-27T08:41:33;100449.81;;;1.53;63.44
58769;BME280;44536;47.474;19.056;2023-01-27T08:44:35;100458.00;;;1.66;62.55
58769;BME280;44536;47.474;19.056;2023-01-27T08:47:37;100458.47;;;1.77;61.33
58769;BME280;44536;47.474;19.056;2023-01-27T08:50:40;100468.63;;;1.85;60.52
58769;BME280;44536;47.474;19.056;2023-01-27T08:53:42;100470.06;;;1.70;61.18
58769;BME280;44536;47.474;19.056;2023-01-27T08:56:44;100469.44;;;1.63;63.04
58769;BME280;44536;47.474;19.056;2023-01-27T08:59:47;100464.53;;;1.78;63.24
58769;BME280;44536;47.474;19.056;2023-01-27T09:02:49;100469.78;;;1.78;61.91
58769;BME280;44536;47.474;19.056;2023-01-27T09:05:52;100472.84;;;1.89;61.58
58769;BME280;44536;47.474;19.056;2023-01-27T09:08:54;100470.34;;;1.86;62.90
58769;BME280;44536;47.474;19.056;2023-01-27T09:12:14;100474.44;;;1.70;62.60
58769;BME280;44536;47.474;19.056;2023-01-27T09:15:16;100486.31;;;1.78;64.62
58769;BME280;44536;47.474;19.056;2023-01-27T09:18:19;100475.09;;;1.53;65.20
58769;BME280;44536;47.474;19.056;2023-01-27T09:21:21;100470.66;;;1.55;67.34
58769;BME280;44536;47.474;19.056;2023-01-27T09:24:24;100479.22;;;1.58;65.60
58769;BME280;44536;47.474;19.056;2023-01-27T09:27:27;100485.81;;;1.69;65.87
58769;BME280;44536;47.474;19.056;2023-01-27T09:30:44;100485.59;;;1.51;65.96
58769;BME280;44536;47.474;19.056;2023-01-27T09:33:47;100486.19;;;1.81;64.55
58769;BME280;44536;47.474;19.056;2023-01-27T09:37:02;100482.38;;;1.66;65.26
58769;BME280;44536;47.474;19.056;2023-01-27T09:40:14;100482.91;;;1.76;66.07
58769;BME280;44536;47.474;19.056;2023-01-27T09:47:11;100484.78;;;1.73;67.47
58769;BME280;44536;47.474;19.056;2023-01-27T09:50:34;100482.72;;;1.81;68.92
58769;BME280;44536;47.474;19.056;2023-01-27T09:53:54;100488.19;;;1.75;68.27
58769;BME280;44536;47.474;19.056;2023-01-27T10:01:03;100480.25;;;1.54;70.18
58769;BME280;44536;47.474;19.056;2023-01-27T10:08:25;100484.78;;;1.73;70.25
58769;BME280;44536;47.474;19.056;2023-01-27T10:11:45;100479.09;;;1.61;71.00
58769;BME280;44536;47.474;19.056;2023-01-27T10:24:52;100480.94;;;2.05;71.71
58769;BME280;44536;47.474;19.056;2023-01-27T10:28:08;100477.47;;;2.04;72.13
58769;BME280;44536;47.474;19.056;2023-01-27T10:31:23;100476.06;;;2.17;70.44
58769;BME280;44536;47.474;19.056;2023-01-27T10:34:34;100482.81;;;2.01;71.67
58769;BME280;44536;47.474;19.056;2023-01-27T10:37:55;100480.66;;;2.11;72.79
58769;BME280;44536;47.474;19.056;2023-01-27T10:41:14;100476.41;;;2.08;71.05
58769;BME280;44536;47.474;19.056;2023-01-27T10:44:45;100476.84;;;1.97;71.90
58769;BME280;44536;47.474;19.056;2023-01-27T10:48:16;100469.00;;;1.97;72.05
58769;BME280;44536;47.474;19.056;2023-01-27T10:51:28;100466.50;;;1.94;71.81
58769;BME280;44536;47.474;19.056;2023-01-27T10:54:46;100470.13;;;1.69;74.26
58769;BME280;44536;47.474;19.056;2023-01-27T10:57:58;100468.63;;;1.61;73.76
58769;BME280;44536;47.474;19.056;2023-01-27T11:01:03;100459.38;;;1.76;74.48
58769;BME280;44536;47.474;19.056;2023-01-27T11:05:08;100454.66;;;1.62;74.21
58769;BME280;44536;47.474;19.056;2023-01-27T11:08:01;100457.41;;;1.36;76.27
58769;BME280;44536;47.474;19.056;2023-01-27T11:11:07;100456.12;;;1.48;77.60
58769;BME280;44536;47.474;19.056;2023-01-27T11:14:48;100449.94;;;1.50;78.27
58769;BME280;44536;47.474;19.056;2023-01-27T11:21:02;100442.66;;;1.35;80.01
58769;BME280;44536;47.474;19.056;2023-01-27T11:24:22;100450.41;;;1.13;81.89
58769;BME280;44536;47.474;19.056;2023-01-27T11:27:40;100457.66;;;1.05;86.95
58769;BME280;44536;47.474;19.056;2023-01-27T11:30:54;100448.06;;;1.06;86.02
58769;BME280;44536;47.474;19.056;2023-01-27T11:34:12;100439.97;;;1.37;83.92
58769;BME280;44536;47.474;19.056;2023-01-27T11:37:29;100445.22;;;1.37;85.57
58769;BME280;44536;47.474;19.056;2023-01-27T11:40:35;100437.72;;;1.51;85.55
58769;BME280;44536;47.474;19.056;2023-01-27T11:43:39;100430.00;;;1.48;87.51
58769;BME280;44536;47.474;19.056;2023-01-27T11:46:42;100432.06;;;1.61;87.01
58769;BME280;44536;47.474;19.056;2023-01-27T11:49:47;100434.41;;;1.22;88.27
58769;BME280;44536;47.474;19.056;2023-01-27T11:52:59;100429.78;;;1.06;87.33
58769;BME280;44536;47.474;19.056;2023-01-27T11:56:10;100420.88;;;0.88;88.98
58769;BME280;44536;47.474;19.056;2023-01-27T11:59:23;100408.84;;;1.07;89.32
58769;BME280;44536;47.474;19.056;2023-01-27T12:06:32;100404.31;;;1.36;89.80
58769;BME280;44536;47.474;19.056;2023-01-27T12:09:40;100407.66;;;1.39;88.31
58769;BME280;44536;47.474;19.056;2023-01-27T12:12:43;100407.72;;;1.59;87.55
58769;BME280;44536;47.474;19.056;2023-01-27T12:19:00;100404.84;;;1.67;88.83
58769;BME280;44536;47.474;19.056;2023-01-27T12:22:31;100395.59;;;1.80;88.39
58769;BME280;44536;47.474;19.056;2023-01-27T12:25:56;100400.16;;;1.97;86.73
58769;BME280;44536;47.474;19.056;2023-01-27T12:29:04;100387.75;;;1.80;86.56
58769;BME280;44536;47.474;19.056;2023-01-27T12:32:23;100385.91;;;1.60;91.00
58769;BME280;44536;47.474;19.056;2023-01-27T12:35:32;100375.78;;;1.75;87.53
58769;BME280;44536;47.474;19.056;2023-01-27T12:38:35;100370.91;;;1.65;89.18
58769;BME280;44536;47.474;19.056;2023-01-27T12:41:38;100375.09;;;1.70;88.19
58769;BME280;44536;47.474;19.056;2023-01-27T12:44:41;100371.41;;;1.53;88.40
58769;BME280;44536;47.474;19.056;2023-01-27T12:51:22;100379.72;;;1.63;89.03
58769;BME280;44536;47.474;19.056;2023-01-27T12:54:27;100377.84;;;1.66;91.28
58769;BME280;44536;47.474;19.056;2023-01-27T12:57:31;100368.50;;;1.83;92.47
58769;BME280;44536;47.474;19.056;2023-01-27T13:00:34;100371.72;;;1.89;89.26
58769;BME280;44536;47.474;19.056;2023-01-27T13:03:40;100381.19;;;1.92;90.26
58769;BME280;44536;47.474;19.056;2023-01-27T13:06:47;100377.06;;;1.64;91.30
58769;BME280;44536;47.474;19.056;2023-01-27T13:10:01;100376.75;;;1.50;90.68
58769;BME280;44536;47.474;19.056;2023-01-27T13:13:04;100377.78;;;1.46;92.47
58769;BME280;44536;47.474;19.056;2023-01-27T13:16:25;100378.47;;;1.28;92.79
58769;BME280;44536;47.474;19.056;2023-01-27T13:19:41;100377.00;;;1.44;92.19
58769;BME280;44536;47.474;19.056;2023-01-27T13:23:03;100383.88;;;1.47;90.63
58769;BME280;44536;47.474;19.056;2023-01-27T13:29:11;100402.09;;;1.25;93.81
58769;BME280;44536;47.474;19.056;2023-01-27T13:32:28;100407.72;;;1.38;93.54
58769;BME280;44536;47.474;19.056;2023-01-27T13:35:36;100403.22;;;1.41;91.84
58769;BME280;44536;47.474;19.056;2023-01-27T13:38:52;100393.97;;;1.32;93.19
58769;BME280;44536;47.474;19.056;2023-01-27T13:45:42;100396.13;;;1.45;93.47
58769;BME280;44536;47.474;19.056;2023-01-27T13:48:49;100399.37;;;1.51;95.68
58769;BME280;44536;47.474;19.056;2023-01-27T13:51:54;100393.47;;;1.68;93.39
58769;BME280;44536;47.474;19.056;2023-01-27T13:54:57;100396.44;;;1.59;91.32
58769;BME280;44536;47.474;19.056;2023-01-27T13:58:26;100403.69;;;1.52;91.96
58769;BME280;44536;47.474;19.056;2023-01-27T14:11:56;100397.72;;;1.71;93.23
58769;BME280;44536;47.474;19.056;2023-01-27T14:18:20;100390.22;;;1.61;94.26
58769;BME280;44536;47.474;19.056;2023-01-27T14:21:42;100392.25;;;1.55;94.87
58769;BME280;44536;47.474;19.056;2023-01-27T14:24:55;100401.47;;;1.42;95.36
58769;BME280;44536;47.474;19.056;2023-01-27T14:35:30;100401.53;;;1.40;95.79
58769;BME280;44536;47.474;19.056;2023-01-27T14:38:53;100396.75;;;1.28;97.21
58769;BME280;44536;47.474;19.056;2023-01-27T14:45:16;100398.84;;;1.18;97.51
58769;BME280;44536;47.474;19.056;2023-01-27T14:48:51;100398.84;;;1.18;97.82
58769;BME280;44536;47.474;19.056;2023-01-27T14:53:05;100397.72;;;1.25;97.23
58769;BME280;44536;47.474;19.056;2023-01-27T14:58:54;100399.31;;;1.29;95.72
58769;BME280;44536;47.474;19.056;2023-01-27T15:05:59;100394.53;;;1.17;97.45
58769;BME280;44536;47.474;19.056;2023-01-27T15:26:11;100391.88;;;1.42;94.89
58769;BME280;44536;47.474;19.056;2023-01-27T15:29:16;100390.50;;;1.32;94.97
58769;BME280;44536;47.474;19.056;2023-01-27T15:32:26;100396.03;;;1.24;95.82
58769;BME280;44536;47.474;19.056;2023-01-27T15:35:30;100401.97;;;1.28;93.76
58769;BME280;44536;47.474;19.056;2023-01-27T15:38:34;100410.03;;;1.22;94.05
58769;BME280;44536;47.474;19.056;2023-01-27T15:44:59;100415.38;;;1.19;94.74
58769;BME280;44536;47.474;19.056;2023-01-27T15:48:05;100425.28;;;1.34;92.71
58769;BME280;44536;47.474;19.056;2023-01-27T15:51:17;100419.34;;;1.29;94.17
58769;BME280;44536;47.474;19.056;2023-01-27T15:54:26;100418.56;;;1.27;92.01
58769;BME280;44536;47.474;19.056;2023-01-27T15:57:33;100410.91;;;1.22;92.32
58769;BME280;44536;47.474;19.056;2023-01-27T16:00:38;100401.47;;;1.18;92.53
58769;BME280;44536;47.474;19.056;2023-01-27T16:03:46;100405.75;;;0.97;93.52
58769;BME280;44536;47.474;19.056;2023-01-27T16:06:58;100403.56;;;1.09;93.95
58769;BME280;44536;47.474;19.056;2023-01-27T16:10:06;100411.88;;;1.20;92.76
58769;BME280;44536;47.474;19.056;2023-01-27T16:13:27;100410.16;;;1.19;91.38
58769;BME280;44536;47.474;19.056;2023-01-27T16:16:31;100410.09;;;1.20;91.37
58769;BME280;44536;47.474;19.056;2023-01-27T16:19:42;100410.22;;;1.17;90.19
58769;BME280;44536;47.474;19.056;2023-01-27T16:22:57;100414.00;;;1.09;90.49
58769;BME280;44536;47.474;19.056;2023-01-27T16:26:30;100423.22;;;1.19;88.94
58769;BME280;44536;47.474;19.056;2023-01-27T16:29:47;100425.81;;;1.19;88.73
58769;BME280;44536;47.474;19.056;2023-01-27T16:33:21;100426.69;;;1.19;89.11
58769;BME280;44536;47.474;19.056;2023-01-27T16:39:34;100431.97;;;1.18;89.84
58769;BME280;44536;47.474;19.056;2023-01-27T16:49:42;100445.75;;;1.21;90.29
58769;BME280;44536;47.474;19.056;2023-01-27T16:52:45;100443.16;;;1.21;89.29
58769;BME280;44536;47.474;19.056;2023-01-27T16:59:07;100449.12;;;1.25;89.16
58769;BME280;44536;47.474;19.056;2023-01-27T17:02:17;100454.56;;;1.19;89.92
58769;BME280;44536;47.474;19.056;2023-01-27T17:05:19;100455.72;;;1.10;91.10
58769;BME280;44536;47.474;19.056;2023-01-27T17:08:25;100455.41;;;1.19;91.21
58769;BME280;44536;47.474;19.056;2023-01-27T17:11:31;100460.78;;;1.15;91.02
58769;BME280;44536;47.474;19.056;2023-01-27T17:14:35;100460.78;;;1.15;92.43
58769;BME280;44536;47.474;19.056;2023-01-27T17:17:43;100468.41;;;1.21;90.78
58769;BME280;44536;47.474;19.056;2023-01-27T17:20:46;100465.62;;;1.25;91.18
58769;BME280;44536;47.474;19.056;2023-01-27T17:23:49;100463.66;;;1.32;90.07
58769;BME280;44536;47.474;19.056;2023-01-27T17:27:00;100475.88;;;1.31;89.73
58769;BME280;44536;47.474;19.056;2023-01-27T17:33:17;100477.50;;;1.34;89.68
58769;BME280;44536;47.474;19.056;2023-01-27T17:36:20;100471.59;;;1.29;90.72
58769;BME280;44536;47.474;19.056;2023-01-27T17:39:24;100469.56;;;1.37;90.02
58769;BME280;44536;47.474;19.056;2023-01-27T17:42:29;100468.38;;;1.46;88.86
58769;BME280;44536;47.474;19.056;2023-01-27T17:45:32;100463.81;;;1.27;91.02
58769;BME280;44536;47.474;19.056;2023-01-27T17:48:38;100463.38;;;1.40;89.22
58769;BME280;44536;47.474;19.056;2023-01-27T17:51:45;100461.44;;;1.45;88.87
58769;BME280;44536;47.474;19.056;2023-01-27T17:54:50;100460.25;;;1.30;90.95
58769;BME280;44536;47.474;19.056;2023-01-27T17:58:03;100464.63;;;1.29;91.42
58769;BME280;44536;47.474;19.056;2023-01-27T18:01:06;100459.91;;;1.39;91.06
58769;BME280;44536;47.474;19.056;2023-01-27T18:04:09;100469.78;;;1.31;91.27
58769;BME280;44536;47.474;19.056;2023-01-27T18:07:12;100472.41;;;1.31;91.85
58769;BME280;44536;47.474;19.056;2023-01-27T18:16:28;100465.81;;;1.44;88.80
58769;BME280;44536;47.474;19.056;2023-01-27T18:19:31;100473.56;;;1.47;89.13
58769;BME280;44536;47.474;19.056;2023-01-27T18:22:42;100477.44;;;1.59;87.57